Sirios Cement IV — 9HQE8 — position and weather

sailwx.info

Track history (hours):
 
Tides and Currents Weather Stations Pressure Air Temp Water Temp Dewpoint Dewpoint Depression Visibility Wind Speed Wind Dir Waves Ship Positions

Sirios Cement IV

Last reported at 2016-Sep-16 09:24 UTC. Time now 2016-Sep-27 13:50 UTC.
Position N 45°08' E 012°38'.
Warning: this ship's position is 11 days out of date.

Length 134 m; draft 5.8 m.

Type: Cargo ship. MMSI: 256278000.

Date/timePositionNaut miles runAvg speedWind from/ knotsBaromVisibWave heightAir tempDewpointWater temp
2016-Sep-16 09:24N 45°08' E 012°38'18 9.5
2016-Sep-16 07:33N 45°20' E 012°19'8 1.9
2016-Sep-16 03:17N 45°28' E 012°15'0 0.0
2016-Sep-16 02:32N 45°28' E 012°15'0 0.0
2016-Sep-16 00:32N 45°28' E 012°15'0 0.0
2016-Sep-15 12:29N 45°28' E 012°15'0 0.0
2016-Sep-15 11:29N 45°28' E 012°15'0 0.0
2016-Sep-15 04:29N 45°28' E 012°15'0 0.0
2016-Sep-15 03:29N 45°28' E 012°15'0 0.0
2016-Sep-15 01:32N 45°28' E 012°15'0 0.0
2016-Sep-14 22:29N 45°28' E 012°15'0 0.0
2016-Sep-14 21:26N 45°28' E 012°15'0 0.0
2016-Sep-14 17:32N 45°28' E 012°15'0 0.0
2016-Sep-14 16:32N 45°28' E 012°15'0 0.0
2016-Sep-14 13:26N 45°28' E 012°15'0 0.0
2016-Sep-14 12:32N 45°28' E 012°15'0 0.0
2016-Sep-14 10:17N 45°28' E 012°15'0 0.0
2016-Sep-14 09:29N 45°28' E 012°15'0 0.0
2016-Sep-14 08:32N 45°28' E 012°15'0 0.0
2016-Sep-14 07:29N 45°28' E 012°15'0 0.0
2016-Sep-14 06:29N 45°28' E 012°15'0 0.0
2016-Sep-14 03:23N 45°28' E 012°15'0 0.0
2016-Sep-13 22:08N 45°28' E 012°15'0 0.0
2016-Sep-13 20:32N 45°28' E 012°15'0 0.0
2016-Sep-13 18:26N 45°28' E 012°15'0 0.0
2016-Sep-13 17:30N 45°28' E 012°15'0 0.0
2016-Sep-13 16:33N 45°28' E 012°15'0 0.0
2016-Sep-13 06:21N 45°28' E 012°15'7 3.9
2016-Sep-13 04:33N 45°21' E 012°16'6 3.1
2016-Sep-13 02:33N 45°22' E 012°25'0 0.0
2016-Sep-12 23:33N 45°22' E 012°25'0 0.0
2016-Sep-12 21:33N 45°22' E 012°25'0 0.0
2016-Sep-12 19:33N 45°22' E 012°25'0 0.0
2016-Sep-12 17:33N 45°22' E 012°25'0 0.0
2016-Sep-12 14:33N 45°22' E 012°25'0 0.0
2016-Sep-12 13:33N 45°22' E 012°25'0 0.0
2016-Sep-12 12:33N 45°22' E 012°25'0 0.0
2016-Sep-12 11:33N 45°22' E 012°25'0 0.0
2016-Sep-12 10:33N 45°22' E 012°25'0 0.0
2016-Sep-12 07:21N 45°22' E 012°25'0 0.0
2016-Sep-12 06:33N 45°22' E 012°25'6 1.9
2016-Sep-12 03:33N 45°17' E 012°30'17 8.6
2016-Sep-12 01:33N 45°07' E 012°50'19 8.6
2016-Sep-11 23:22N 44°59' E 013°14'7 8.6
2016-Sep-11 22:33N 44°56' E 013°23'8 8.3
2016-Sep-11 21:32N 44°49' E 013°30'  
Track history (hours):
 
Tides and Currents Weather Stations Pressure Air Temp Water Temp Dewpoint Dewpoint Depression Visibility Wind Speed Wind Dir Waves Ship Positions

Sirios Cement IV

Last reported at 2016-Sep-16 09:24 UTC. Time now 2016-Sep-27 13:50 UTC.
Position N 45°08' E 012°38'.
Warning: this ship's position is 11 days out of date.

Length 134 m; draft 5.8 m.

Type: Cargo ship. MMSI: 256278000.

Date/timePositionNaut miles runAvg speedWind from/ knotsBaromVisibWave heightAir tempDewpointWater temp
2016-Sep-16 09:24N 45°08' E 012°38'18 9.5
2016-Sep-16 07:33N 45°20' E 012°19'8 1.9
2016-Sep-16 03:17N 45°28' E 012°15'0 0.0
2016-Sep-16 02:32N 45°28' E 012°15'0 0.0
2016-Sep-16 00:32N 45°28' E 012°15'0 0.0
2016-Sep-15 12:29N 45°28' E 012°15'0 0.0
2016-Sep-15 11:29N 45°28' E 012°15'0 0.0
2016-Sep-15 04:29N 45°28' E 012°15'0 0.0
2016-Sep-15 03:29N 45°28' E 012°15'0 0.0
2016-Sep-15 01:32N 45°28' E 012°15'0 0.0
2016-Sep-14 22:29N 45°28' E 012°15'0 0.0
2016-Sep-14 21:26N 45°28' E 012°15'0 0.0
2016-Sep-14 17:32N 45°28' E 012°15'0 0.0
2016-Sep-14 16:32N 45°28' E 012°15'0 0.0
2016-Sep-14 13:26N 45°28' E 012°15'0 0.0
2016-Sep-14 12:32N 45°28' E 012°15'0 0.0
2016-Sep-14 10:17N 45°28' E 012°15'0 0.0
2016-Sep-14 09:29N 45°28' E 012°15'0 0.0
2016-Sep-14 08:32N 45°28' E 012°15'0 0.0
2016-Sep-14 07:29N 45°28' E 012°15'0 0.0
2016-Sep-14 06:29N 45°28' E 012°15'0 0.0
2016-Sep-14 03:23N 45°28' E 012°15'0 0.0
2016-Sep-13 22:08N 45°28' E 012°15'0 0.0
2016-Sep-13 20:32N 45°28' E 012°15'0 0.0
2016-Sep-13 18:26N 45°28' E 012°15'0 0.0
2016-Sep-13 17:30N 45°28' E 012°15'0 0.0
2016-Sep-13 16:33N 45°28' E 012°15'0 0.0
2016-Sep-13 06:21N 45°28' E 012°15'7 3.9
2016-Sep-13 04:33N 45°21' E 012°16'6 3.1
2016-Sep-13 02:33N 45°22' E 012°25'0 0.0
2016-Sep-12 23:33N 45°22' E 012°25'0 0.0
2016-Sep-12 21:33N 45°22' E 012°25'0 0.0
2016-Sep-12 19:33N 45°22' E 012°25'0 0.0
2016-Sep-12 17:33N 45°22' E 012°25'0 0.0
2016-Sep-12 14:33N 45°22' E 012°25'0 0.0
2016-Sep-12 13:33N 45°22' E 012°25'0 0.0
2016-Sep-12 12:33N 45°22' E 012°25'0 0.0
2016-Sep-12 11:33N 45°22' E 012°25'0 0.0
2016-Sep-12 10:33N 45°22' E 012°25'0 0.0
2016-Sep-12 07:21N 45°22' E 012°25'0 0.0
2016-Sep-12 06:33N 45°22' E 012°25'6 1.9
2016-Sep-12 03:33N 45°17' E 012°30'17 8.6
2016-Sep-12 01:33N 45°07' E 012°50'19 8.6
2016-Sep-11 23:22N 44°59' E 013°14'7 8.6
2016-Sep-11 22:33N 44°56' E 013°23'8 8.3
2016-Sep-11 21:32N 44°49' E 013°30'  

Dump ship's entire track history